sensor_id;sensor_type;location;lat;lon;timestamp;temperature;humidity
49711;DHT22;35602;44.534;18.696;2022-08-30T00:03:25;26.70;64.00
49711;DHT22;35602;44.534;18.696;2022-08-30T00:08:26;26.70;64.00
49711;DHT22;35602;44.534;18.696;2022-08-30T00:13:28;26.60;63.90
49711;DHT22;35602;44.534;18.696;2022-08-30T00:18:29;26.70;64.00
49711;DHT22;35602;44.534;18.696;2022-08-30T00:23:30;26.60;63.90
49711;DHT22;35602;44.534;18.696;2022-08-30T00:28:32;26.70;63.90
49711;DHT22;35602;44.534;18.696;2022-08-30T00:33:33;26.60;63.90
49711;DHT22;35602;44.534;18.696;2022-08-30T00:38:34;26.60;63.90
49711;DHT22;35602;44.534;18.696;2022-08-30T00:43:35;26.60;63.90
49711;DHT22;35602;44.534;18.696;2022-08-30T00:48:42;26.60;63.80
49711;DHT22;35602;44.534;18.696;2022-08-30T00:53:48;26.60;63.90
49711;DHT22;35602;44.534;18.696;2022-08-30T00:58:54;26.60;63.80
49711;DHT22;35602;44.534;18.696;2022-08-30T01:03:56;26.60;63.80
49711;DHT22;35602;44.534;18.696;2022-08-30T01:08:57;26.60;63.80
49711;DHT22;35602;44.534;18.696;2022-08-30T01:13:58;26.60;63.80
49711;DHT22;35602;44.534;18.696;2022-08-30T01:19:01;26.60;63.80
49711;DHT22;35602;44.534;18.696;2022-08-30T01:24:02;26.60;63.80
49711;DHT22;35602;44.534;18.696;2022-08-30T01:29:06;26.60;63.80
49711;DHT22;35602;44.534;18.696;2022-08-30T01:34:08;26.60;63.80
49711;DHT22;35602;44.534;18.696;2022-08-30T01:39:10;26.60;63.80
49711;DHT22;35602;44.534;18.696;2022-08-30T01:44:15;26.60;63.80
49711;DHT22;35602;44.534;18.696;2022-08-30T01:49:17;26.60;63.80
49711;DHT22;35602;44.534;18.696;2022-08-30T01:54:18;26.60;63.80
49711;DHT22;35602;44.534;18.696;2022-08-30T01:59:19;26.60;63.80
49711;DHT22;35602;44.534;18.696;2022-08-30T02:04:20;26.60;63.80
49711;DHT22;35602;44.534;18.696;2022-08-30T02:09:21;26.60;63.80
49711;DHT22;35602;44.534;18.696;2022-08-30T02:14:22;26.60;63.80
49711;DHT22;35602;44.534;18.696;2022-08-30T02:19:23;26.60;63.80
49711;DHT22;35602;44.534;18.696;2022-08-30T02:24:24;26.60;63.80
49711;DHT22;35602;44.534;18.696;2022-08-30T02:29:26;26.60;63.80
49711;DHT22;35602;44.534;18.696;2022-08-30T02:34:27;26.60;63.80
49711;DHT22;35602;44.534;18.696;2022-08-30T02:39:28;26.60;63.80
49711;DHT22;35602;44.534;18.696;2022-08-30T02:44:29;26.60;63.80
49711;DHT22;35602;44.534;18.696;2022-08-30T02:49:29;26.60;63.80
49711;DHT22;35602;44.534;18.696;2022-08-30T02:54:31;26.60;63.70
49711;DHT22;35602;44.534;18.696;2022-08-30T02:59:32;26.60;63.70
49711;DHT22;35602;44.534;18.696;2022-08-30T03:04:33;26.60;63.80
49711;DHT22;35602;44.534;18.696;2022-08-30T03:09:35;26.60;63.80
49711;DHT22;35602;44.534;18.696;2022-08-30T03:14:37;26.60;63.70
49711;DHT22;35602;44.534;18.696;2022-08-30T03:19:38;26.50;63.70
49711;DHT22;35602;44.534;18.696;2022-08-30T03:24:39;26.60;63.60
49711;DHT22;35602;44.534;18.696;2022-08-30T03:29:40;26.60;63.70
49711;DHT22;35602;44.534;18.696;2022-08-30T03:34:41;26.60;63.60
49711;DHT22;35602;44.534;18.696;2022-08-30T03:39:42;26.60;63.60
49711;DHT22;35602;44.534;18.696;2022-08-30T03:44:45;26.60;63.60
49711;DHT22;35602;44.534;18.696;2022-08-30T03:49:46;26.60;63.60
49711;DHT22;35602;44.534;18.696;2022-08-30T03:54:47;26.50;63.40
49711;DHT22;35602;44.534;18.696;2022-08-30T03:59:48;26.50;63.50
49711;DHT22;35602;44.534;18.696;2022-08-30T04:04:49;26.50;63.40
49711;DHT22;35602;44.534;18.696;2022-08-30T04:09:50;26.50;63.50
49711;DHT22;35602;44.534;18.696;2022-08-30T04:14:50;26.50;63.50
49711;DHT22;35602;44.534;18.696;2022-08-30T04:19:52;26.60;63.60
49711;DHT22;35602;44.534;18.696;2022-08-30T04:24:53;26.50;63.50
49711;DHT22;35602;44.534;18.696;2022-08-30T04:29:53;26.50;63.40
49711;DHT22;35602;44.534;18.696;2022-08-30T04:34:59;26.50;63.40
49711;DHT22;35602;44.534;18.696;2022-08-30T04:39:59;26.50;63.30
49711;DHT22;35602;44.534;18.696;2022-08-30T04:45:03;26.50;63.30
49711;DHT22;35602;44.534;18.696;2022-08-30T04:50:08;26.50;63.30
49711;DHT22;35602;44.534;18.696;2022-08-30T04:55:09;26.50;63.20
49711;DHT22;35602;44.534;18.696;2022-08-30T05:00:11;26.50;63.20
49711;DHT22;35602;44.534;18.696;2022-08-30T05:05:15;26.50;63.20
49711;DHT22;35602;44.534;18.696;2022-08-30T05:10:41;26.50;63.20
49711;DHT22;35602;44.534;18.696;2022-08-30T05:15:43;26.50;63.10
49711;DHT22;35602;44.534;18.696;2022-08-30T05:20:43;26.50;63.20
49711;DHT22;35602;44.534;18.696;2022-08-30T05:25:44;26.50;63.10
49711;DHT22;35602;44.534;18.696;2022-08-30T05:30:45;26.50;63.10
49711;DHT22;35602;44.534;18.696;2022-08-30T05:35:46;26.50;63.00
49711;DHT22;35602;44.534;18.696;2022-08-30T05:40:47;26.50;63.00
49711;DHT22;35602;44.534;18.696;2022-08-30T05:45:58;26.50;63.00
49711;DHT22;35602;44.534;18.696;2022-08-30T05:51:11;26.50;63.00
49711;DHT22;35602;44.534;18.696;2022-08-30T05:56:14;26.50;63.10
49711;DHT22;35602;44.534;18.696;2022-08-30T06:06:55;26.50;63.00
49711;DHT22;35602;44.534;18.696;2022-08-30T06:11:56;26.50;63.00
49711;DHT22;35602;44.534;18.696;2022-08-30T06:16:57;26.40;62.90
49711;DHT22;35602;44.534;18.696;2022-08-30T06:21:58;26.50;62.90
49711;DHT22;35602;44.534;18.696;2022-08-30T06:27:00;26.40;62.90
49711;DHT22;35602;44.534;18.696;2022-08-30T06:32:01;26.40;62.90
49711;DHT22;35602;44.534;18.696;2022-08-30T06:37:02;26.40;62.80
49711;DHT22;35602;44.534;18.696;2022-08-30T06:42:04;26.50;62.90
49711;DHT22;35602;44.534;18.696;2022-08-30T06:47:05;26.40;62.80
49711;DHT22;35602;44.534;18.696;2022-08-30T06:52:06;26.50;62.60
49711;DHT22;35602;44.534;18.696;2022-08-30T06:57:06;26.40;62.70
49711;DHT22;35602;44.534;18.696;2022-08-30T07:02:07;26.40;62.50
49711;DHT22;35602;44.534;18.696;2022-08-30T07:07:09;26.40;62.60
49711;DHT22;35602;44.534;18.696;2022-08-30T07:12:11;26.40;62.60
49711;DHT22;35602;44.534;18.696;2022-08-30T07:17:13;26.40;62.50
49711;DHT22;35602;44.534;18.696;2022-08-30T07:22:32;26.40;62.50
49711;DHT22;35602;44.534;18.696;2022-08-30T07:27:33;26.40;62.40
49711;DHT22;35602;44.534;18.696;2022-08-30T07:32:34;26.40;62.40
49711;DHT22;35602;44.534;18.696;2022-08-30T07:37:35;26.40;62.40
49711;DHT22;35602;44.534;18.696;2022-08-30T07:42:36;26.40;62.30
49711;DHT22;35602;44.534;18.696;2022-08-30T07:47:37;26.40;62.30
49711;DHT22;35602;44.534;18.696;2022-08-30T07:52:38;26.40;62.40
49711;DHT22;35602;44.534;18.696;2022-08-30T07:57:39;26.40;62.30
49711;DHT22;35602;44.534;18.696;2022-08-30T08:02:40;26.50;62.30
49711;DHT22;35602;44.534;18.696;2022-08-30T08:07:42;26.40;62.00
49711;DHT22;35602;44.534;18.696;2022-08-30T08:12:42;26.40;61.60
49711;DHT22;35602;44.534;18.696;2022-08-30T08:17:43;26.40;61.60
49711;DHT22;35602;44.534;18.696;2022-08-30T08:22:45;26.30;61.70
49711;DHT22;35602;44.534;18.696;2022-08-30T08:27:50;26.40;61.70
49711;DHT22;35602;44.534;18.696;2022-08-30T08:32:51;26.40;61.90
49711;DHT22;35602;44.534;18.696;2022-08-30T08:37:52;26.40;62.10
49711;DHT22;35602;44.534;18.696;2022-08-30T08:43:09;26.40;62.30
49711;DHT22;35602;44.534;18.696;2022-08-30T08:48:54;26.50;62.10
49711;DHT22;35602;44.534;18.696;2022-08-30T08:54:07;26.40;62.00
49711;DHT22;35602;44.534;18.696;2022-08-30T08:59:09;26.50;62.30
49711;DHT22;35602;44.534;18.696;2022-08-30T09:04:15;26.50;62.30
49711;DHT22;35602;44.534;18.696;2022-08-30T09:09:20;26.50;62.30
49711;DHT22;35602;44.534;18.696;2022-08-30T09:14:27;26.50;62.20
49711;DHT22;35602;44.534;18.696;2022-08-30T09:25:27;26.60;62.60
49711;DHT22;35602;44.534;18.696;2022-08-30T09:30:29;26.70;62.50
49711;DHT22;35602;44.534;18.696;2022-08-30T09:36:15;26.70;62.30
49711;DHT22;35602;44.534;18.696;2022-08-30T09:41:37;26.70;62.30
49711;DHT22;35602;44.534;18.696;2022-08-30T09:47:00;26.70;62.20
49711;DHT22;35602;44.534;18.696;2022-08-30T09:58:46;26.80;62.10
49711;DHT22;35602;44.534;18.696;2022-08-30T10:04:18;26.80;62.30
49711;DHT22;35602;44.534;18.696;2022-08-30T10:17:37;26.80;62.70
49711;DHT22;35602;44.534;18.696;2022-08-30T10:22:45;26.80;62.70
49711;DHT22;35602;44.534;18.696;2022-08-30T10:27:53;26.80;62.80
49711;DHT22;35602;44.534;18.696;2022-08-30T10:33:27;26.80;63.00
49711;DHT22;35602;44.534;18.696;2022-08-30T10:38:33;26.80;63.30
49711;DHT22;35602;44.534;18.696;2022-08-30T10:49:04;26.90;63.70
49711;DHT22;35602;44.534;18.696;2022-08-30T10:54:46;26.90;64.00
49711;DHT22;35602;44.534;18.696;2022-08-30T10:59:53;26.90;64.40
49711;DHT22;35602;44.534;18.696;2022-08-30T11:13:21;26.90;65.00
49711;DHT22;35602;44.534;18.696;2022-08-30T11:18:24;26.90;65.30
49711;DHT22;35602;44.534;18.696;2022-08-30T11:23:31;26.90;65.80
49711;DHT22;35602;44.534;18.696;2022-08-30T11:29:31;26.90;65.70
49711;DHT22;35602;44.534;18.696;2022-08-30T11:37:35;26.90;66.10
49711;DHT22;35602;44.534;18.696;2022-08-30T11:42:45;26.90;65.70
49711;DHT22;35602;44.534;18.696;2022-08-30T11:47:48;26.90;65.00
49711;DHT22;35602;44.534;18.696;2022-08-30T11:53:04;26.90;65.40
49711;DHT22;35602;44.534;18.696;2022-08-30T11:58:22;26.90;65.30
49711;DHT22;35602;44.534;18.696;2022-08-30T12:03:31;26.90;65.70
49711;DHT22;35602;44.534;18.696;2022-08-30T12:08:41;26.90;65.80
49711;DHT22;35602;44.534;18.696;2022-08-30T12:13:53;26.90;66.10
49711;DHT22;35602;44.534;18.696;2022-08-30T12:18:57;26.90;65.10
49711;DHT22;35602;44.534;18.696;2022-08-30T12:24:20;27.00;65.30
49711;DHT22;35602;44.534;18.696;2022-08-30T12:29:26;27.00;65.20
49711;DHT22;35602;44.534;18.696;2022-08-30T12:41:03;27.00;65.10
49711;DHT22;35602;44.534;18.696;2022-08-30T12:46:09;27.00;64.90
49711;DHT22;35602;44.534;18.696;2022-08-30T12:51:39;27.00;64.90
49711;DHT22;35602;44.534;18.696;2022-08-30T12:57:05;27.00;64.90
49711;DHT22;35602;44.534;18.696;2022-08-30T13:02:16;27.00;64.80
49711;DHT22;35602;44.534;18.696;2022-08-30T13:07:29;27.00;65.00
49711;DHT22;35602;44.534;18.696;2022-08-30T13:12:30;27.00;65.20
49711;DHT22;35602;44.534;18.696;2022-08-30T13:17:31;27.00;66.00
49711;DHT22;35602;44.534;18.696;2022-08-30T13:22:59;27.00;66.10
49711;DHT22;35602;44.534;18.696;2022-08-30T13:28:01;27.00;66.40
49711;DHT22;35602;44.534;18.696;2022-08-30T13:33:02;27.00;66.70
49711;DHT22;35602;44.534;18.696;2022-08-30T13:38:03;26.90;66.60
49711;DHT22;35602;44.534;18.696;2022-08-30T13:43:04;26.90;66.60
49711;DHT22;35602;44.534;18.696;2022-08-30T13:48:05;26.90;67.10
49711;DHT22;35602;44.534;18.696;2022-08-30T13:53:06;26.90;66.50
49711;DHT22;35602;44.534;18.696;2022-08-30T13:58:08;26.90;66.30
49711;DHT22;35602;44.534;18.696;2022-08-30T14:03:09;26.90;66.40
49711;DHT22;35602;44.534;18.696;2022-08-30T14:08:12;27.00;67.00
49711;DHT22;35602;44.534;18.696;2022-08-30T14:13:13;27.00;66.50
49711;DHT22;35602;44.534;18.696;2022-08-30T14:18:14;27.00;66.50
49711;DHT22;35602;44.534;18.696;2022-08-30T14:23:14;26.90;65.80
49711;DHT22;35602;44.534;18.696;2022-08-30T14:28:15;27.00;66.00
49711;DHT22;35602;44.534;18.696;2022-08-30T14:33:16;27.00;65.90
49711;DHT22;35602;44.534;18.696;2022-08-30T14:38:17;27.00;65.80
49711;DHT22;35602;44.534;18.696;2022-08-30T14:43:18;27.00;65.90
49711;DHT22;35602;44.534;18.696;2022-08-30T14:48:19;26.90;65.80
49711;DHT22;35602;44.534;18.696;2022-08-30T14:53:19;27.00;65.90
49711;DHT22;35602;44.534;18.696;2022-08-30T14:58:20;26.90;65.90
49711;DHT22;35602;44.534;18.696;2022-08-30T15:03:22;26.90;65.90
49711;DHT22;35602;44.534;18.696;2022-08-30T15:08:23;26.90;66.00
49711;DHT22;35602;44.534;18.696;2022-08-30T15:13:24;26.90;66.00
49711;DHT22;35602;44.534;18.696;2022-08-30T15:18:25;26.90;66.00
49711;DHT22;35602;44.534;18.696;2022-08-30T15:23:26;26.90;66.10
49711;DHT22;35602;44.534;18.696;2022-08-30T15:28:27;26.90;66.10
49711;DHT22;35602;44.534;18.696;2022-08-30T15:33:28;26.90;66.10
49711;DHT22;35602;44.534;18.696;2022-08-30T15:38:29;26.80;66.00
49711;DHT22;35602;44.534;18.696;2022-08-30T15:43:30;26.80;66.10
49711;DHT22;35602;44.534;18.696;2022-08-30T15:48:31;26.80;66.00
49711;DHT22;35602;44.534;18.696;2022-08-30T15:53:32;26.80;66.00
49711;DHT22;35602;44.534;18.696;2022-08-30T15:58:33;26.80;66.00
49711;DHT22;35602;44.534;18.696;2022-08-30T16:03:35;26.80;66.00
49711;DHT22;35602;44.534;18.696;2022-08-30T16:08:36;26.80;66.10
49711;DHT22;35602;44.534;18.696;2022-08-30T16:13:37;26.80;66.00
49711;DHT22;35602;44.534;18.696;2022-08-30T16:18:38;26.80;66.00
49711;DHT22;35602;44.534;18.696;2022-08-30T16:23:41;26.80;66.10
49711;DHT22;35602;44.534;18.696;2022-08-30T16:28:42;26.80;66.00
49711;DHT22;35602;44.534;18.696;2022-08-30T16:33:44;26.80;66.00
49711;DHT22;35602;44.534;18.696;2022-08-30T16:38:45;26.80;66.00
49711;DHT22;35602;44.534;18.696;2022-08-30T16:43:46;26.80;66.00
49711;DHT22;35602;44.534;18.696;2022-08-30T16:48:47;26.80;66.00
49711;DHT22;35602;44.534;18.696;2022-08-30T16:53:48;26.80;66.00
49711;DHT22;35602;44.534;18.696;2022-08-30T16:58:50;26.80;66.00
49711;DHT22;35602;44.534;18.696;2022-08-30T17:03:51;26.80;66.00
49711;DHT22;35602;44.534;18.696;2022-08-30T17:08:52;26.80;66.50
49711;DHT22;35602;44.534;18.696;2022-08-30T17:13:52;26.80;66.00
49711;DHT22;35602;44.534;18.696;2022-08-30T17:18:55;26.80;66.00
49711;DHT22;35602;44.534;18.696;2022-08-30T17:23:57;26.80;66.00
49711;DHT22;35602;44.534;18.696;2022-08-30T17:28:58;26.80;66.00
49711;DHT22;35602;44.534;18.696;2022-08-30T17:34:00;26.80;66.00
49711;DHT22;35602;44.534;18.696;2022-08-30T17:39:03;26.80;66.00
49711;DHT22;35602;44.534;18.696;2022-08-30T17:44:04;26.80;66.00
49711;DHT22;35602;44.534;18.696;2022-08-30T17:49:05;26.80;65.90
49711;DHT22;35602;44.534;18.696;2022-08-30T17:54:06;26.80;66.00
49711;DHT22;35602;44.534;18.696;2022-08-30T17:59:09;26.80;65.90
49711;DHT22;35602;44.534;18.696;2022-08-30T18:04:12;26.80;65.90
49711;DHT22;35602;44.534;18.696;2022-08-30T18:09:13;26.80;66.00
49711;DHT22;35602;44.534;18.696;2022-08-30T18:14:15;26.80;66.00
49711;DHT22;35602;44.534;18.696;2022-08-30T18:19:19;26.80;66.00
49711;DHT22;35602;44.534;18.696;2022-08-30T18:24:21;26.80;66.00
49711;DHT22;35602;44.534;18.696;2022-08-30T18:29:22;26.80;66.00
49711;DHT22;35602;44.534;18.696;2022-08-30T18:34:23;26.80;66.00
49711;DHT22;35602;44.534;18.696;2022-08-30T18:39:25;26.80;66.00
49711;DHT22;35602;44.534;18.696;2022-08-30T18:44:25;26.80;66.00
49711;DHT22;35602;44.534;18.696;2022-08-30T18:49:28;26.80;66.00
49711;DHT22;35602;44.534;18.696;2022-08-30T18:54:29;26.80;66.00
49711;DHT22;35602;44.534;18.696;2022-08-30T18:59:29;26.80;66.00
49711;DHT22;35602;44.534;18.696;2022-08-30T19:04:31;26.80;66.00
49711;DHT22;35602;44.534;18.696;2022-08-30T19:09:34;26.70;66.10
49711;DHT22;35602;44.534;18.696;2022-08-30T19:14:35;26.80;66.10
49711;DHT22;35602;44.534;18.696;2022-08-30T19:19:35;26.70;66.00
49711;DHT22;35602;44.534;18.696;2022-08-30T19:24:36;26.70;66.00
49711;DHT22;35602;44.534;18.696;2022-08-30T19:29:38;26.70;66.00
49711;DHT22;35602;44.534;18.696;2022-08-30T19:34:39;26.80;66.10
49711;DHT22;35602;44.534;18.696;2022-08-30T19:39:40;26.80;66.10
49711;DHT22;35602;44.534;18.696;2022-08-30T19:44:41;26.70;66.00
49711;DHT22;35602;44.534;18.696;2022-08-30T19:49:42;26.70;66.70
49711;DHT22;35602;44.534;18.696;2022-08-30T19:54:43;26.80;66.10
49711;DHT22;35602;44.534;18.696;2022-08-30T19:59:44;26.70;66.00
49711;DHT22;35602;44.534;18.696;2022-08-30T20:04:44;26.70;66.00
49711;DHT22;35602;44.534;18.696;2022-08-30T20:09:47;26.70;66.00
49711;DHT22;35602;44.534;18.696;2022-08-30T20:14:48;26.70;66.00
49711;DHT22;35602;44.534;18.696;2022-08-30T20:19:49;26.70;66.10
49711;DHT22;35602;44.534;18.696;2022-08-30T20:24:50;26.70;66.00
49711;DHT22;35602;44.534;18.696;2022-08-30T20:29:50;26.70;66.00
49711;DHT22;35602;44.534;18.696;2022-08-30T20:34:52;26.70;66.00
49711;DHT22;35602;44.534;18.696;2022-08-30T20:39:56;26.70;66.10
49711;DHT22;35602;44.534;18.696;2022-08-30T20:44:58;26.70;66.00
49711;DHT22;35602;44.534;18.696;2022-08-30T20:50:00;26.70;66.00
49711;DHT22;35602;44.534;18.696;2022-08-30T20:55:02;26.70;66.00
49711;DHT22;35602;44.534;18.696;2022-08-30T21:00:10;26.70;66.00
49711;DHT22;35602;44.534;18.696;2022-08-30T21:05:12;26.70;65.90
49711;DHT22;35602;44.534;18.696;2022-08-30T21:10:14;26.70;65.90
49711;DHT22;35602;44.534;18.696;2022-08-30T21:15:16;26.70;65.90
49711;DHT22;35602;44.534;18.696;2022-08-30T21:20:17;26.70;65.90
49711;DHT22;35602;44.534;18.696;2022-08-30T21:25:18;26.70;65.90
49711;DHT22;35602;44.534;18.696;2022-08-30T21:30:19;26.70;65.90
49711;DHT22;35602;44.534;18.696;2022-08-30T21:35:20;26.70;65.80
49711;DHT22;35602;44.534;18.696;2022-08-30T21:40:39;26.70;66.60
49711;DHT22;35602;44.534;18.696;2022-08-30T21:45:41;26.70;65.90
49711;DHT22;35602;44.534;18.696;2022-08-30T21:50:43;26.70;65.80
49711;DHT22;35602;44.534;18.696;2022-08-30T21:55:45;26.70;65.90
49711;DHT22;35602;44.534;18.696;2022-08-30T22:00:46;26.70;65.90
49711;DHT22;35602;44.534;18.696;2022-08-30T22:05:52;26.70;65.80
49711;DHT22;35602;44.534;18.696;2022-08-30T22:10:53;26.70;65.80
49711;DHT22;35602;44.534;18.696;2022-08-30T22:15:54;26.60;65.70
49711;DHT22;35602;44.534;18.696;2022-08-30T22:20:54;26.70;65.70
49711;DHT22;35602;44.534;18.696;2022-08-30T22:25:57;26.60;65.70
49711;DHT22;35602;44.534;18.696;2022-08-30T22:31:03;26.60;65.60
49711;DHT22;35602;44.534;18.696;2022-08-30T22:36:10;26.70;65.70
49711;DHT22;35602;44.534;18.696;2022-08-30T22:41:15;26.60;65.60
49711;DHT22;35602;44.534;18.696;2022-08-30T22:46:18;26.60;65.60
49711;DHT22;35602;44.534;18.696;2022-08-30T22:51:20;26.70;65.70
49711;DHT22;35602;44.534;18.696;2022-08-30T22:56:24;26.60;65.60
49711;DHT22;35602;44.534;18.696;2022-08-30T23:01:28;26.60;65.60
49711;DHT22;35602;44.534;18.696;2022-08-30T23:06:29;26.70;65.70
49711;DHT22;35602;44.534;18.696;2022-08-30T23:11:33;26.70;65.80
49711;DHT22;35602;44.534;18.696;2022-08-30T23:16:34;26.70;65.60
49711;DHT22;35602;44.534;18.696;2022-08-30T23:21:35;26.60;65.60
49711;DHT22;35602;44.534;18.696;2022-08-30T23:26:36;26.60;65.60
49711;DHT22;35602;44.534;18.696;2022-08-30T23:31:56;26.60;65.50
49711;DHT22;35602;44.534;18.696;2022-08-30T23:37:16;26.60;65.50
49711;DHT22;35602;44.534;18.696;2022-08-30T23:42:35;26.60;65.50
49711;DHT22;35602;44.534;18.696;2022-08-30T23:47:54;26.70;65.60
49711;DHT22;35602;44.534;18.696;2022-08-30T23:53:14;26.60;65.50
49711;DHT22;35602;44.534;18.696;2022-08-30T23:58:33;26.60;65.50
